createdAt,value
2024-03-26T00:00:20.863Z,77.2
2024-03-26T00:05:56.383Z,77
2024-03-26T00:11:31.502Z,77
2024-03-26T00:17:06.911Z,77.3
2024-03-26T00:22:42.092Z,76.8
2024-03-26T00:28:17.130Z,75.7
2024-03-26T00:33:52.128Z,76.1
2024-03-26T00:39:27.574Z,75.3
2024-03-26T00:45:04.254Z,75.5
2024-03-26T00:50:44.809Z,75.8
2024-03-26T00:56:20.251Z,75.8
2024-03-26T01:01:55.111Z,75.5
2024-03-26T01:07:31.745Z,75.6
2024-03-26T01:13:06.569Z,75.2
2024-03-26T01:18:41.530Z,75.3
2024-03-26T01:24:16.546Z,74.4
2024-03-26T01:29:51.880Z,74.7
2024-03-26T01:35:26.831Z,74.6
2024-03-26T01:41:01.927Z,74.4
2024-03-26T01:46:37.096Z,74.5
2024-03-26T01:52:11.962Z,74.7
2024-03-26T01:57:46.915Z,74.8
2024-03-26T02:03:22.503Z,74.4
2024-03-26T02:08:57.586Z,74.7
2024-03-26T02:14:32.868Z,75.2
2024-03-26T02:20:09.076Z,74.7
2024-03-26T02:25:44.566Z,74.6
2024-03-26T02:31:19.806Z,74.6
2024-03-26T02:36:55.497Z,75
2024-03-26T02:42:30.592Z,75.1
2024-03-26T02:48:05.769Z,74.6
2024-03-26T02:53:41.280Z,74.7
2024-03-26T02:59:16.301Z,74.8
2024-03-26T03:04:51.929Z,74.6
2024-03-26T03:10:27.251Z,74.6
2024-03-26T03:16:02.070Z,74.4
2024-03-26T03:21:37.361Z,74.5
2024-03-26T03:27:12.465Z,74.2
2024-03-26T03:32:48.049Z,74.5
2024-03-26T03:38:23.563Z,74.7
2024-03-26T03:43:58.988Z,74.7
2024-03-26T03:49:33.811Z,74.4
2024-03-26T03:55:08.819Z,74
2024-03-26T04:00:44.060Z,73.8
2024-03-26T04:06:18.951Z,73.4
2024-03-26T04:11:55.954Z,73
2024-03-26T04:17:31.670Z,72.4
2024-03-26T04:23:06.828Z,72.1
2024-03-26T04:28:42.119Z,71.7
2024-03-26T04:34:17.496Z,71.8
2024-03-26T04:39:52.445Z,71.9
2024-03-26T04:45:27.259Z,72
2024-03-26T04:51:02.385Z,72.3
2024-03-26T04:56:37.352Z,72.7
2024-03-26T05:02:12.641Z,73.4
2024-03-26T05:07:47.771Z,73.5
2024-03-26T05:13:22.839Z,73.3
2024-03-26T05:18:58.044Z,73.2
2024-03-26T05:24:33.069Z,72.8
2024-03-26T05:30:07.913Z,72.7
2024-03-26T05:35:42.882Z,72.7
2024-03-26T05:41:18.926Z,72.5
2024-03-26T05:46:54.049Z,71.7
2024-03-26T05:52:29.428Z,71.3
2024-03-26T05:58:04.912Z,71
2024-03-26T06:03:40.749Z,71
2024-03-26T06:09:15.772Z,70.7
2024-03-26T06:14:51.160Z,70.7
2024-03-26T06:20:27.384Z,70.5
2024-03-26T06:26:02.767Z,69.7
2024-03-26T06:31:38.384Z,69.6
2024-03-26T06:37:13.691Z,69.1
2024-03-26T06:42:50.072Z,68.9
2024-03-26T06:48:25.603Z,72.9
2024-03-26T06:54:02.011Z,72.7
2024-03-26T06:59:36.880Z,73.3
2024-03-26T07:05:12.271Z,74.2
2024-03-26T07:10:47.718Z,75.1
2024-03-26T07:16:22.993Z,75.1
2024-03-26T07:21:58.015Z,76.2
2024-03-26T07:27:32.901Z,75.9
2024-03-26T07:33:08.046Z,76.1
2024-03-26T07:38:43.386Z,78.4
2024-03-26T07:44:18.083Z,77
2024-03-26T07:49:53.489Z,76.5
2024-03-26T07:55:29.264Z,76.8
2024-03-26T08:01:04.631Z,76.7
2024-03-26T08:06:40.708Z,76
2024-03-26T08:12:17.331Z,76.2
2024-03-26T08:17:52.928Z,74.8
2024-03-26T08:23:28.723Z,74
2024-03-26T08:29:04.296Z,74.5
2024-03-26T08:34:40.033Z,76.9
2024-03-26T08:40:15.675Z,74.6
2024-03-26T08:45:51.032Z,75.4
2024-03-26T08:51:25.958Z,77
2024-03-26T08:57:01.534Z,76.1
2024-03-26T09:02:36.900Z,76.9
2024-03-26T09:08:11.642Z,76.4
2024-03-26T09:13:47.019Z,75.5
2024-03-26T09:19:22.866Z,77.1
2024-03-26T09:24:57.971Z,76.7
2024-03-26T09:30:33.238Z,75.8
2024-03-26T09:36:08.785Z,76
2024-03-26T09:41:43.685Z,75.7
2024-03-26T09:47:18.937Z,75.3
2024-03-26T09:52:54.710Z,75.4
2024-03-26T09:58:29.926Z,75.7
2024-03-26T10:04:05.940Z,75.2
2024-03-26T10:09:41.271Z,74.4
2024-03-26T10:15:16.065Z,73.8
2024-03-26T10:20:51.390Z,74.1
2024-03-26T10:26:28.276Z,74
2024-03-26T10:32:03.522Z,74.4
2024-03-26T10:37:38.863Z,73.4
2024-03-26T10:43:14.216Z,75
2024-03-26T10:49:01.534Z,73.1
2024-03-26T10:54:37.716Z,74.9
2024-03-26T11:00:12.990Z,75
2024-03-26T11:05:48.595Z,70.8
2024-03-26T11:11:23.646Z,75.2
2024-03-26T11:16:58.779Z,72.1
2024-03-26T11:22:34.412Z,70.2
2024-03-26T11:28:09.621Z,68.7
2024-03-26T11:33:45.428Z,69.4
2024-03-26T11:39:20.580Z,70.1
2024-03-26T11:44:55.915Z,69.8
2024-03-26T11:50:31.335Z,68.8
2024-03-26T11:56:06.618Z,67.2
2024-03-26T12:01:42.740Z,68.1
2024-03-26T12:07:18.408Z,67
2024-03-26T12:12:53.023Z,67.3
2024-03-26T12:18:28.394Z,65.3
2024-03-26T12:24:03.662Z,64.8
2024-03-26T12:29:39.185Z,67.2
2024-03-26T12:35:14.362Z,67
2024-03-26T12:40:50.325Z,64.4
2024-03-26T12:46:25.773Z,65.4
2024-03-26T12:52:01.276Z,65.4
2024-03-26T12:57:36.760Z,65.7
2024-03-26T13:03:11.677Z,62.2
2024-03-26T13:08:46.506Z,64.3
2024-03-26T13:14:21.935Z,66.3
2024-03-26T13:19:58.764Z,63.5
2024-03-26T13:25:33.831Z,61.7
2024-03-26T13:31:09.440Z,63.6
2024-03-26T13:36:44.647Z,63.3
2024-03-26T13:42:20.765Z,60.4
2024-03-26T13:47:56.035Z,62
2024-03-26T13:53:32.303Z,61.6
2024-03-26T13:59:08.276Z,62.6
2024-03-26T14:04:44.584Z,62.7
2024-03-26T14:10:19.597Z,63.2
2024-03-26T14:15:54.823Z,63.3
2024-03-26T14:21:30.340Z,63.1
2024-03-26T14:27:05.589Z,61.3
2024-03-26T14:32:40.862Z,61.9
2024-03-26T14:38:16.223Z,62.5
2024-03-26T14:43:51.422Z,62.7
2024-03-26T14:49:26.948Z,62.6
2024-03-26T14:55:02.037Z,63.3
2024-03-26T15:00:37.725Z,61.6
2024-03-26T15:06:13.096Z,61.8
2024-03-26T15:11:48.539Z,62.1
2024-03-26T15:17:23.742Z,62.9
2024-03-26T15:22:58.767Z,63.7
2024-03-26T15:28:34.097Z,64
2024-03-26T15:34:09.318Z,63
2024-03-26T15:39:44.555Z,63.8
2024-03-26T15:45:19.811Z,62.3
2024-03-26T15:50:55.062Z,62.6
2024-03-26T15:56:30.444Z,62.8
2024-03-26T16:02:05.624Z,62.9
2024-03-26T16:07:40.878Z,62.3
2024-03-26T16:13:16.160Z,64.3
2024-03-26T16:18:51.871Z,63.8
2024-03-26T16:24:26.797Z,64.3
2024-03-26T16:30:02.951Z,65.1
2024-03-26T16:35:38.348Z,66.2
2024-03-26T16:41:13.536Z,67.5
2024-03-26T16:46:48.523Z,65.9
2024-03-26T16:52:24.445Z,65.6
2024-03-26T16:57:59.838Z,64.5
2024-03-26T17:03:35.140Z,65.8
2024-03-26T17:09:10.534Z,65.8
2024-03-26T17:14:46.162Z,64.8
2024-03-26T17:20:22.070Z,64.9
2024-03-26T17:25:57.460Z,65.1
2024-03-26T17:31:33.300Z,65.6
2024-03-26T17:37:08.486Z,65
2024-03-26T17:42:43.456Z,66.4
2024-03-26T17:48:18.399Z,67.1
2024-03-26T17:53:53.766Z,65.6
2024-03-26T17:59:29.114Z,65.7
2024-03-26T18:05:04.179Z,65.3
2024-03-26T18:10:39.125Z,66.3
2024-03-26T18:16:14.583Z,67.1
2024-03-26T18:21:50.375Z,67.1
2024-03-26T18:27:25.444Z,66.8
2024-03-26T18:33:00.960Z,66.8
2024-03-26T18:38:36.172Z,66.7
2024-03-26T18:44:11.107Z,66.8
2024-03-26T18:49:46.520Z,67.1
2024-03-26T18:55:21.645Z,67.2
2024-03-26T19:00:56.984Z,67.3
2024-03-26T19:06:32.725Z,66.8
2024-03-26T19:12:08.173Z,67.1
2024-03-26T19:17:44.177Z,66.6
2024-03-26T19:23:19.731Z,66.8
2024-03-26T19:28:54.611Z,67.1
2024-03-26T19:34:30.137Z,67.2
2024-03-26T19:40:05.374Z,66.5
2024-03-26T19:45:40.643Z,66.9
2024-03-26T19:51:16.099Z,66.4
2024-03-26T19:56:51.476Z,66.7
2024-03-26T20:02:26.651Z,66.4
2024-03-26T20:08:02.331Z,66.9
2024-03-26T20:13:37.823Z,67.3
2024-03-26T20:19:12.682Z,67.3
2024-03-26T20:24:47.712Z,67.2
2024-03-26T20:30:23.608Z,67.3
2024-03-26T20:35:58.777Z,67.8
2024-03-26T20:41:34.018Z,68.8
2024-03-26T20:47:09.111Z,68.2
2024-03-26T20:52:43.965Z,68.2
2024-03-26T20:58:19.510Z,68.1
2024-03-26T21:03:54.998Z,67.7
2024-03-26T21:09:30.221Z,66.7
2024-03-26T21:15:20.596Z,67.8
2024-03-26T21:21:05.587Z,67
2024-03-26T21:26:40.646Z,67.8
2024-03-26T21:32:15.688Z,67.3
2024-03-26T21:37:50.980Z,68.1
2024-03-26T21:43:25.898Z,69.5
2024-03-26T21:49:01.155Z,69.7
2024-03-26T21:54:36.647Z,70.4
2024-03-26T22:00:11.910Z,71
2024-03-26T22:05:47.075Z,68.1
2024-03-26T22:11:22.172Z,69.2
2024-03-26T22:16:57.289Z,68.1
2024-03-26T22:22:32.217Z,68.8
2024-03-26T22:28:07.414Z,68.5
2024-03-26T22:33:42.194Z,68
2024-03-26T22:39:17.382Z,68.3
2024-03-26T22:44:52.833Z,68
2024-03-26T22:50:27.624Z,68.6
2024-03-26T22:56:02.671Z,68
2024-03-26T23:01:37.933Z,68.7
2024-03-26T23:07:13.227Z,68.6
2024-03-26T23:12:48.262Z,68.5
2024-03-26T23:18:23.520Z,68.6
2024-03-26T23:23:58.897Z,68.2
2024-03-26T23:29:34.172Z,67.8
2024-03-26T23:35:09.102Z,68.2
2024-03-26T23:40:44.746Z,67.8
2024-03-26T23:46:19.608Z,68
2024-03-26T23:51:55.127Z,67.4
2024-03-26T23:57:30.125Z,67.5
